createdAt,value
2022-12-01T00:00:01.584Z,100.32
2022-12-01T00:05:02.149Z,100.52
2022-12-01T00:10:02.194Z,100.52
2022-12-01T00:20:01.814Z,100.14
2022-12-01T00:25:01.746Z,100.29
2022-12-01T00:30:01.870Z,100.28
2022-12-01T00:35:01.749Z,100.21
2022-12-01T00:40:01.796Z,100.37
2022-12-01T00:45:01.298Z,100.34
2022-12-01T00:50:01.912Z,100.27
2022-12-01T00:55:01.984Z,100.42
2022-12-01T01:00:01.824Z,100.47
2022-12-01T01:05:02.052Z,100.46
2022-12-01T01:10:01.242Z,100.57
2022-12-01T01:15:01.467Z,100.53
2022-12-01T01:20:01.658Z,100.69
2022-12-01T01:25:02.210Z,100.79
2022-12-01T01:30:01.615Z,100.98
2022-12-01T01:35:01.783Z,100.99
2022-12-01T01:40:01.970Z,101.07
2022-12-01T01:45:02.006Z,101.11
2022-12-01T01:50:02.075Z,101.14
2022-12-01T01:55:01.974Z,101.19
2022-12-01T02:00:02.191Z,101.31
2022-12-01T02:05:01.307Z,101.28
2022-12-01T02:10:01.394Z,101.36
2022-12-01T02:15:01.795Z,101.51
2022-12-01T02:20:02.203Z,101.54
2022-12-01T02:25:01.909Z,101.68
2022-12-01T02:30:02.104Z,101.75
2022-12-01T02:35:02.126Z,101.82
2022-12-01T02:40:02.111Z,101.97
2022-12-01T02:45:01.444Z,101.99
2022-12-01T02:50:01.896Z,101.99
2022-12-01T02:55:01.912Z,101.92
2022-12-01T03:00:02.103Z,101.98
2022-12-01T03:05:01.492Z,102.04
2022-12-01T03:10:02.233Z,102.08
2022-12-01T03:15:01.545Z,102.2
2022-12-01T03:20:01.957Z,102.29
2022-12-01T03:25:02.096Z,102.32
2022-12-01T03:30:02.169Z,102.37
2022-12-01T03:35:01.642Z,102.39
2022-12-01T03:40:02.257Z,102.49
2022-12-01T03:45:02.285Z,102.46
2022-12-01T03:50:02.138Z,102.53
2022-12-01T03:55:02.087Z,102.62
2022-12-01T04:00:02.209Z,102.54
2022-12-01T04:05:01.396Z,102.66
2022-12-01T04:10:02.127Z,102.63
2022-12-01T04:15:01.345Z,102.59
2022-12-01T04:20:02.183Z,102.67
2022-12-01T04:25:02.237Z,102.66
2022-12-01T04:30:01.801Z,102.56
2022-12-01T04:35:01.293Z,102.56
2022-12-01T04:40:01.318Z,102.61
2022-12-01T04:45:01.968Z,102.77
2022-12-01T04:50:02.278Z,102.83
2022-12-01T04:55:01.399Z,102.87
2022-12-01T05:00:01.400Z,102.84
2022-12-01T05:05:01.686Z,102.84
2022-12-01T05:10:01.472Z,102.84
2022-12-01T05:15:02.130Z,102.73
2022-12-01T05:20:01.849Z,102.77
2022-12-01T05:25:01.468Z,102.99
2022-12-01T05:30:01.610Z,102.84
2022-12-01T05:35:01.259Z,102.77
2022-12-01T05:40:02.237Z,102.68
2022-12-01T05:45:02.292Z,102.73
2022-12-01T05:50:05.519Z,102.67
2022-12-01T05:55:01.391Z,102.69
2022-12-01T06:00:02.191Z,102.6
2022-12-01T06:05:01.462Z,102.58
2022-12-01T06:10:02.104Z,102.58
2022-12-01T06:15:01.503Z,102.45
2022-12-01T06:20:01.713Z,102.36
2022-12-01T06:25:01.989Z,102.24
2022-12-01T06:30:01.666Z,102.27
2022-12-01T06:35:01.573Z,102.14
2022-12-01T06:40:01.335Z,102.18
2022-12-01T06:45:01.890Z,102.13
2022-12-01T06:50:01.860Z,102.06
2022-12-01T06:55:01.357Z,101.82
2022-12-01T07:00:01.712Z,101.82
2022-12-01T07:05:01.861Z,101.86
2022-12-01T07:10:01.515Z,101.84
2022-12-01T07:15:01.496Z,101.87
2022-12-01T07:20:02.061Z,101.87
2022-12-01T07:25:02.178Z,101.64
2022-12-01T07:30:01.917Z,101.43
2022-12-01T07:35:01.342Z,101.52
2022-12-01T07:40:01.310Z,101.5
2022-12-01T07:45:02.068Z,101.13
2022-12-01T07:50:01.935Z,101.17
2022-12-01T07:55:01.325Z,101.11
2022-12-01T08:00:01.389Z,101.11
2022-12-01T08:05:01.917Z,101.06
2022-12-01T08:10:01.956Z,101
2022-12-01T08:15:01.733Z,101.03
2022-12-01T08:20:01.745Z,100.96
2022-12-01T08:25:02.061Z,100.75
2022-12-01T08:30:01.719Z,100.58
2022-12-01T08:35:02.194Z,100.67
2022-12-01T08:40:01.420Z,100.39
2022-12-01T08:45:01.411Z,100.43
2022-12-01T08:50:01.676Z,100.47
2022-12-01T08:55:02.191Z,100.48
2022-12-01T09:00:01.993Z,100.69
2022-12-01T09:05:01.745Z,100.56
2022-12-01T09:10:02.165Z,100.31
2022-12-01T09:15:02.136Z,100.53
2022-12-01T09:20:01.927Z,100.56
2022-12-01T09:25:01.428Z,100.59
2022-12-01T09:30:01.593Z,100.56
2022-12-01T09:35:01.972Z,100.56
2022-12-01T09:40:01.837Z,100.5
2022-12-01T09:45:01.404Z,100.41
2022-12-01T09:50:01.745Z,100.4
2022-12-01T09:55:01.684Z,100.22
2022-12-01T10:00:01.819Z,100.22
2022-12-01T10:05:01.847Z,100.04
2022-12-01T10:10:02.049Z,100.07
2022-12-01T10:15:02.255Z,99.67
2022-12-01T10:20:01.962Z,99.59
2022-12-01T10:25:01.929Z,99.58
2022-12-01T10:30:01.832Z,99.06
2022-12-01T10:35:01.766Z,99.31
2022-12-01T10:40:01.831Z,98.92
2022-12-01T10:45:01.578Z,98.81
2022-12-01T10:50:01.887Z,98.64
2022-12-01T10:55:02.046Z,98.56
2022-12-01T11:00:01.985Z,98.67
2022-12-01T11:05:02.011Z,98.37
2022-12-01T11:10:01.618Z,99.8
2022-12-01T11:15:01.687Z,99.55
2022-12-01T11:20:01.622Z,99.32
2022-12-01T11:25:06.544Z,98.61
2022-12-01T11:30:01.761Z,98.66
2022-12-01T11:35:02.146Z,98.27
2022-12-01T11:40:01.849Z,98.25
2022-12-01T11:45:02.266Z,98.46
2022-12-01T11:50:02.151Z,99.19
2022-12-01T11:55:05.594Z,97.73
2022-12-01T12:00:01.505Z,98.47
2022-12-01T12:05:01.713Z,97.99
2022-12-01T12:10:01.722Z,98.11
2022-12-01T12:15:01.919Z,98.11
2022-12-01T12:20:08.969Z,97.44
2022-12-01T12:25:01.884Z,98.18
2022-12-01T12:30:02.065Z,98.14
2022-12-01T12:35:02.060Z,98.53
2022-12-01T12:40:02.126Z,97.34
2022-12-01T12:45:01.931Z,95.23
2022-12-01T12:50:01.986Z,97.21
2022-12-01T12:55:01.908Z,96.05
2022-12-01T13:00:02.088Z,96.77
2022-12-01T13:05:02.035Z,95.31
2022-12-01T13:10:02.050Z,95.18
2022-12-01T13:15:02.129Z,95.17
2022-12-01T13:20:01.884Z,94.88
2022-12-01T13:25:02.879Z,95.52
2022-12-01T13:30:02.012Z,95.29
2022-12-01T13:35:02.043Z,94.8
2022-12-01T13:40:02.183Z,94.09
2022-12-01T13:45:01.677Z,94.65
2022-12-01T13:50:01.545Z,94.88
2022-12-01T13:55:01.493Z,94.98
2022-12-01T14:00:01.591Z,94.86
2022-12-01T14:05:01.411Z,94.43
2022-12-01T14:10:01.607Z,94.77
2022-12-01T14:15:01.696Z,94.54
2022-12-01T14:20:01.648Z,93.92
2022-12-01T14:25:02.182Z,94.12
2022-12-01T14:30:01.862Z,94.06
2022-12-01T14:35:02.002Z,94.31
2022-12-01T14:40:01.972Z,94.22
2022-12-01T14:45:01.849Z,94.22
2022-12-01T14:50:02.007Z,94.43
2022-12-01T14:55:02.220Z,94.24
2022-12-01T15:00:02.337Z,95.2
2022-12-01T15:05:01.377Z,94.25
2022-12-01T15:10:01.431Z,94.38
2022-12-01T15:15:01.733Z,92.45
2022-12-01T15:20:01.836Z,92.59
2022-12-01T15:25:01.862Z,92.49
2022-12-01T15:30:01.752Z,92.19
2022-12-01T15:35:01.748Z,92.6
2022-12-01T15:40:59.540Z,92.54
2022-12-01T15:45:01.715Z,93.6
2022-12-01T15:50:01.777Z,93.74
2022-12-01T15:55:01.780Z,94.44
2022-12-01T16:00:01.881Z,94.31
2022-12-01T16:05:01.886Z,94.13
2022-12-01T16:10:01.984Z,93.77
2022-12-01T16:15:02.168Z,94.03
2022-12-01T16:20:01.369Z,94.28
2022-12-01T16:25:01.329Z,93.9
2022-12-01T16:30:01.856Z,94.25
2022-12-01T16:35:02.303Z,93.49
2022-12-01T16:40:02.183Z,93.65
2022-12-01T16:45:01.417Z,93.65
2022-12-01T16:50:01.402Z,94.19
2022-12-01T16:55:01.883Z,94.64
2022-12-01T17:00:02.237Z,95.03
2022-12-01T17:05:01.956Z,94.58
2022-12-01T17:10:02.271Z,94.64
2022-12-01T17:15:01.366Z,95.19
2022-12-01T17:20:02.116Z,94.41
2022-12-01T17:25:01.437Z,94.27
2022-12-01T17:30:02.026Z,94.87
2022-12-01T17:35:01.870Z,94.19
2022-12-01T17:40:01.984Z,93.58
2022-12-01T17:45:01.864Z,94.14
2022-12-01T17:50:01.851Z,94.29
2022-12-01T17:55:01.978Z,93.95
2022-12-01T18:00:02.165Z,94.21
2022-12-01T18:05:01.729Z,94.58
2022-12-01T18:10:01.990Z,94.66
2022-12-01T18:15:02.090Z,94.67
2022-12-01T18:20:01.591Z,94.41
2022-12-01T18:25:01.921Z,94.32
2022-12-01T18:30:01.837Z,94.28
2022-12-01T18:35:02.086Z,95.15
2022-12-01T18:40:01.992Z,94.86
2022-12-01T18:45:01.932Z,94.38
2022-12-01T18:50:02.212Z,94.84
2022-12-01T18:55:02.102Z,94.93
2022-12-01T19:00:01.474Z,95.34
2022-12-01T19:05:01.797Z,95.05
2022-12-01T19:10:01.351Z,94.85
2022-12-01T19:15:01.632Z,95.47
2022-12-01T19:20:01.863Z,94.96
2022-12-01T19:25:01.879Z,95.08
2022-12-01T19:30:02.124Z,94.77
2022-12-01T19:35:01.326Z,95.02
2022-12-01T19:40:01.523Z,94.93
2022-12-01T19:45:01.550Z,94.96
2022-12-01T19:50:01.818Z,94.96
2022-12-01T19:55:01.942Z,94.73
2022-12-01T20:00:01.823Z,95.09
2022-12-01T20:05:01.763Z,95.21
2022-12-01T20:10:02.079Z,94.8
2022-12-01T20:15:01.300Z,94.25
2022-12-01T20:20:01.547Z,94.41
2022-12-01T20:25:01.998Z,94.41
2022-12-01T20:30:02.013Z,94.3
2022-12-01T20:35:01.856Z,94.28
2022-12-01T20:40:01.828Z,94.09
2022-12-01T20:45:02.021Z,94.57
2022-12-01T20:50:02.051Z,94.3
2022-12-01T20:55:01.381Z,94.5
2022-12-01T21:00:01.354Z,94.61
2022-12-01T21:05:01.870Z,94.99
2022-12-01T21:10:02.150Z,95.54
2022-12-01T21:15:02.205Z,95.18
2022-12-01T21:20:02.129Z,95.73
2022-12-01T21:25:02.127Z,95.54
2022-12-01T21:30:02.074Z,95.55
2022-12-01T21:35:02.096Z,95.5
2022-12-01T21:40:01.951Z,95.63
2022-12-01T21:45:01.624Z,95.25
2022-12-01T21:50:01.701Z,95.54
2022-12-01T21:55:01.583Z,95.89
2022-12-01T22:00:01.853Z,95.55
2022-12-01T22:05:01.412Z,95.28
2022-12-01T22:10:07.696Z,95.16
2022-12-01T22:15:01.950Z,95.64
2022-12-01T22:20:01.918Z,95.68
2022-12-01T22:25:01.852Z,96.06
2022-12-01T22:30:01.632Z,95.87
2022-12-01T22:35:01.753Z,94.59
2022-12-01T22:40:01.706Z,94.89
2022-12-01T22:45:01.746Z,95.7
2022-12-01T22:50:01.926Z,95.44
2022-12-01T22:55:01.850Z,95.73
2022-12-01T23:00:01.934Z,95.42
2022-12-01T23:05:02.064Z,95.55
2022-12-01T23:10:02.191Z,95.96
2022-12-01T23:15:01.856Z,95.45
2022-12-01T23:20:01.829Z,95.99
2022-12-01T23:25:01.666Z,94.83
2022-12-01T23:30:01.824Z,95.23
2022-12-01T23:35:01.955Z,94.86
2022-12-01T23:40:01.997Z,94.23
2022-12-01T23:45:01.959Z,94.44
2022-12-01T23:50:01.766Z,93.66
2022-12-01T23:55:01.805Z,93.96
